Time;durP1;ratioP1;P1;durP2;ratioP2;P2;SDS_P1;SDS_P2;PMS_P1;PMS_P2;Temp;Humidity;BMP_temperature;BMP_pressure;BME280_temperature;BME280_humidity;BME280_pressure;Samples;Min_cycle;Max_cycle;Signal;HPM_P1;HPM_P2
2023/05/28 00:00:13;;;;;;;42.80;11.55;;;;;;;13.69;100.00;102177.91;5090707;28;20059;-45
2023/05/28 00:02:39;;;;;;;49.72;12.27;;;;;;;13.70;100.00;102176.94;5076272;28;20078;-45
2023/05/28 00:05:05;;;;;;;48.97;12.85;;;;;;;13.65;100.00;102169.31;5076180;28;20056;-47
2023/05/28 00:07:31;;;;;;;46.80;12.20;;;;;;;13.61;100.00;102167.94;5074853;28;20153;-45
2023/05/28 00:09:58;;;;;;;39.63;11.07;;;;;;;13.63;100.00;102163.22;5088958;28;20500;-44
2023/05/28 00:12:24;;;;;;;44.08;12.23;;;;;;;13.60;100.00;102161.69;5079177;28;20109;-48
2023/05/28 00:14:50;;;;;;;51.50;11.93;;;;;;;13.61;100.00;102162.53;5080410;28;20019;-47
2023/05/28 00:17:16;;;;;;;46.90;12.27;;;;;;;13.63;100.00;102160.50;5091163;28;20115;-47
2023/05/28 00:19:42;;;;;;;55.50;12.43;;;;;;;13.60;100.00;102156.28;5085559;28;20039;-46
2023/05/28 00:22:07;;;;;;;51.58;11.60;;;;;;;13.57;100.00;102151.22;5074612;28;20351;-45
2023/05/28 00:24:33;;;;;;;49.03;12.82;;;;;;;13.55;100.00;102152.41;5080979;28;20394;-46
2023/05/28 00:26:58;;;;;;;44.53;11.38;;;;;;;13.54;100.00;102153.44;5091173;28;20032;-45
2023/05/28 00:29:26;;;;;;;44.15;11.50;;;;;;;13.51;100.00;102148.38;5090106;28;20067;-47
2023/05/28 00:31:55;;;;;;;49.97;12.18;;;;;;;13.51;100.00;102148.38;5085397;28;20381;-44
2023/05/28 00:34:21;;;;;;;46.13;12.23;;;;;;;13.51;100.00;102153.78;5075939;28;20413;-45
2023/05/28 00:36:46;;;;;;;50.20;11.95;;;;;;;13.53;100.00;102154.44;5079386;28;20850;-45
2023/05/28 00:39:14;;;;;;;56.38;11.82;;;;;;;13.54;100.00;102150.72;5071870;28;20130;-46
2023/05/28 00:41:40;;;;;;;41.53;13.15;;;;;;;13.54;100.00;102148.88;5077015;28;20145;-46
2023/05/28 00:44:05;;;;;;;44.40;11.93;;;;;;;13.51;100.00;102151.91;5081632;28;20032;-45
2023/05/28 00:46:31;;;;;;;49.92;12.18;;;;;;;13.49;100.00;102143.13;5079585;28;20467;-46
2023/05/28 00:48:56;;;;;;;46.42;12.32;;;;;;;13.51;100.00;102137.56;5070436;28;20066;-45
2023/05/28 00:51:22;;;;;;;41.67;12.52;;;;;;;13.47;100.00;102136.19;5085178;28;20040;-47
2023/05/28 00:53:48;;;;;;;47.17;12.65;;;;;;;13.39;100.00;102134.31;5080147;28;20040;-48
2023/05/28 00:56:13;;;;;;;41.47;11.95;;;;;;;13.37;100.00;102142.59;5067109;28;20052;-44
2023/05/28 00:58:43;;;;;;;43.25;13.68;;;;;;;13.38;100.00;102144.31;5073396;28;20028;-48
2023/05/28 01:01:09;;;;;;;43.85;13.23;;;;;;;13.41;100.00;102136.88;5081428;28;20062;-46
2023/05/28 01:03:39;;;;;;;50.83;13.00;;;;;;;13.43;100.00;102143.81;5079973;28;20033;-47
2023/05/28 01:06:11;;;;;;;43.20;11.35;;;;;;;13.39;100.00;102139.72;5074619;28;20024;-43
2023/05/28 01:08:37;;;;;;;42.63;13.00;;;;;;;13.42;100.00;102138.56;5073200;28;20040;-44
2023/05/28 01:11:03;;;;;;;40.63;13.02;;;;;;;13.38;100.00;102144.31;5075458;28;20032;-47
2023/05/28 01:13:30;;;;;;;43.45;12.88;;;;;;;13.36;100.00;102135.50;5082822;28;20064;-45
2023/05/28 01:15:56;;;;;;;44.67;13.13;;;;;;;13.33;100.00;102140.41;5075785;28;20082;-46
2023/05/28 01:18:21;;;;;;;44.47;13.13;;;;;;;13.25;100.00;102138.53;5087712;28;20294;-46
2023/05/28 01:20:47;;;;;;;46.33;13.15;;;;;;;13.22;100.00;102151.50;5072047;28;20028;-47
2023/05/28 01:23:17;;;;;;;49.25;13.38;;;;;;;13.19;100.00;102144.56;5053338;28;20051;-46
2023/05/28 01:25:44;;;;;;;41.00;13.35;;;;;;;13.14;100.00;102136.16;5083163;28;20036;-46
2023/05/28 01:28:13;;;;;;;49.72;13.57;;;;;;;13.07;100.00;102154.03;5074085;28;20036;-44
2023/05/28 01:30:39;;;;;;;45.38;13.15;;;;;;;13.04;100.00;102157.06;5082808;28;20522;-44
2023/05/28 01:33:05;;;;;;;40.28;12.70;;;;;;;13.00;100.00;102158.41;5074539;28;20363;-45
2023/05/28 01:35:30;;;;;;;42.80;13.02;;;;;;;12.96;100.00;102158.75;5081417;28;20032;-45
2023/05/28 01:37:59;;;;;;;55.17;13.00;;;;;;;12.91;100.00;102152.16;5078852;28;20649;-43
2023/05/28 01:40:25;;;;;;;42.50;13.50;;;;;;;12.93;100.00;102155.53;5076788;28;20132;-44
2023/05/28 01:42:51;;;;;;;50.35;13.82;;;;;;;12.88;100.00;102147.91;5085011;28;20036;-46
2023/05/28 01:45:17;;;;;;;46.20;12.98;;;;;;;12.81;100.00;102151.44;5075772;28;20466;-43
2023/05/28 01:47:43;;;;;;;41.85;12.60;;;;;;;12.78;100.00;102147.22;5077939;28;20192;-45
2023/05/28 01:50:09;;;;;;;46.75;12.82;;;;;;;12.82;100.00;102147.72;5078119;28;20028;-43
2023/05/28 01:52:34;;;;;;;47.53;13.20;;;;;;;12.77;100.00;102145.53;5085914;28;20063;-46
2023/05/28 01:54:59;;;;;;;48.60;13.68;;;;;;;12.73;100.00;102145.00;5088191;28;20041;-44
2023/05/28 01:57:25;;;;;;;53.17;14.65;;;;;;;12.70;100.00;102145.31;5080944;28;20100;-47
2023/05/28 01:59:50;;;;;;;46.45;14.43;;;;;;;12.69;100.00;102146.34;5076324;28;20115;-47
2023/05/28 02:02:16;;;;;;;49.63;14.60;;;;;;;12.73;100.00;102150.41;5078305;28;20143;-49
2023/05/28 02:04:41;;;;;;;44.83;13.30;;;;;;;12.64;100.00;102139.75;5071425;28;20024;-46
2023/05/28 02:07:07;;;;;;;52.20;13.38;;;;;;;12.63;100.00;102141.59;5076254;28;20048;-42
2023/05/28 02:09:32;;;;;;;46.88;14.30;;;;;;;12.58;100.00;102135.00;5076500;28;20075;-47
2023/05/28 02:12:02;;;;;;;57.50;14.18;;;;;;;12.57;100.00;102136.00;5078997;28;20346;-44
2023/05/28 02:14:28;;;;;;;55.28;14.52;;;;;;;12.56;100.00;102134.28;5076492;28;20097;-46
2023/05/28 02:16:53;;;;;;;58.83;14.70;;;;;;;12.54;100.00;102145.28;5070502;28;20032;-48
2023/05/28 02:19:19;;;;;;;51.30;13.98;;;;;;;12.55;100.00;102138.03;5078235;28;20393;-45
2023/05/28 02:21:45;;;;;;;50.63;15.88;;;;;;;12.52;100.00;102137.31;5075694;28;20035;-47
2023/05/28 02:24:10;;;;;;;48.17;13.88;;;;;;;12.54;100.00;102141.75;5078191;28;20737;-46
2023/05/28 02:26:35;;;;;;;57.78;15.57;;;;;;;12.46;100.00;102147.94;5075981;28;20496;-45
2023/05/28 02:29:01;;;;;;;49.70;14.40;;;;;;;12.43;100.00;102149.13;5079338;28;20027;-45
2023/05/28 02:31:26;;;;;;;41.75;13.50;;;;;;;12.42;100.00;102147.41;5064299;28;20085;-44
2023/05/28 02:33:52;;;;;;;50.13;14.25;;;;;;;12.39;100.00;102145.03;5083306;28;20382;-45
2023/05/28 02:36:17;;;;;;;45.65;15.50;;;;;;;12.36;100.00;102142.66;5086056;28;20073;-46
2023/05/28 02:38:42;;;;;;;56.08;15.27;;;;;;;12.36;100.00;102148.06;5076987;28;20031;-47
2023/05/28 02:41:09;;;;;;;54.55;15.10;;;;;;;12.34;100.00;102149.22;5072982;28;20050;-44
2023/05/28 02:43:34;;;;;;;50.05;13.98;;;;;;;12.29;100.00;102165.91;5077725;28;20036;-45
2023/05/28 02:46:00;;;;;;;48.90;14.20;;;;;;;12.22;100.00;102151.38;5086971;28;20028;-43
2023/05/28 02:48:25;;;;;;;47.67;14.15;;;;;;;12.21;100.00;102146.97;5075526;28;20513;-45
2023/05/28 02:50:51;;;;;;;63.78;15.10;;;;;;;12.18;100.00;102145.44;5083104;28;20059;-43
2023/05/28 02:53:20;;;;;;;46.45;14.63;;;;;;;12.15;100.00;102150.31;5085942;28;20032;-45
2023/05/28 02:55:46;;;;;;;48.00;14.88;;;;;;;12.12;100.00;102148.78;5088692;28;20037;-47
2023/05/28 02:58:12;;;;;;;52.63;13.90;;;;;;;12.11;100.00;102143.53;5079878;28;20032;-45
2023/05/28 03:00:38;;;;;;;44.42;14.55;;;;;;;12.10;100.00;102145.41;5085346;28;20032;-48
2023/05/28 03:03:03;;;;;;;55.10;14.90;;;;;;;12.05;100.00;102151.28;5081147;28;20085;-46
2023/05/28 03:05:28;;;;;;;54.67;14.88;;;;;;;12.05;100.00;102151.28;5089247;28;20055;-45
2023/05/28 03:07:54;;;;;;;48.50;14.40;;;;;;;11.98;100.00;102146.66;5083103;28;20021;-44
2023/05/28 03:10:19;;;;;;;54.80;14.70;;;;;;;11.97;100.00;102148.53;5079126;28;20475;-47
2023/05/28 03:12:45;;;;;;;57.95;15.90;;;;;;;11.95;100.00;102150.53;5082644;28;20032;-45
2023/05/28 03:15:10;;;;;;;51.90;14.38;;;;;;;11.92;100.00;102145.47;5088710;28;20081;-46
2023/05/28 03:17:35;;;;;;;51.05;15.55;;;;;;;11.94;100.00;102148.84;5076060;28;20055;-45
2023/05/28 03:20:01;;;;;;;51.20;15.20;;;;;;;11.92;100.00;102153.53;5079821;28;20024;-46
2023/05/28 03:22:26;;;;;;;60.67;14.93;;;;;;;11.92;100.00;102153.53;5072188;28;20055;-43
2023/05/28 03:24:51;;;;;;;53.65;14.80;;;;;;;11.94;100.00;102158.81;5073954;28;20028;-44
2023/05/28 03:27:17;;;;;;;48.20;14.55;;;;;;;11.91;100.00;102154.56;5073753;28;20071;-46
2023/05/28 03:29:42;;;;;;;45.67;13.77;;;;;;;11.91;100.00;102148.34;5073086;28;20024;-45
2023/05/28 03:32:07;;;;;;;54.72;15.25;;;;;;;11.91;100.00;102151.88;5074376;28;20538;-43
2023/05/28 03:34:33;;;;;;;43.80;13.18;;;;;;;11.89;100.00;102156.56;5079915;28;20028;-45
2023/05/28 03:37:00;;;;;;;51.33;14.25;;;;;;;11.90;100.00;102152.00;5084670;28;20055;-46
2023/05/28 03:39:25;;;;;;;42.58;13.65;;;;;;;11.83;100.00;102159.88;5079493;28;20771;-44
2023/05/28 03:41:51;;;;;;;41.13;13.82;;;;;;;11.79;100.00;102155.78;5073755;28;20027;-47
2023/05/28 03:44:17;;;;;;;53.65;14.82;;;;;;;11.80;100.00;102158.34;5073511;28;20028;-47
2023/05/28 03:46:42;;;;;;;50.50;14.38;;;;;;;11.83;100.00;102157.19;5073409;28;20452;-43
2023/05/28 03:49:08;;;;;;;43.55;14.73;;;;;;;11.84;100.00;102148.06;5083057;28;20035;-46
2023/05/28 03:51:33;;;;;;;48.47;15.35;;;;;;;11.78;100.00;102148.72;5078939;28;20025;-45
2023/05/28 03:53:58;;;;;;;47.05;15.02;;;;;;;11.80;100.00;102152.09;5073024;28;20434;-43
2023/05/28 03:56:24;;;;;;;41.28;13.95;;;;;;;11.79;100.00;102150.41;5075464;28;20029;-44
2023/05/28 03:58:50;;;;;;;54.05;14.77;;;;;;;11.75;100.00;102157.97;5093609;28;20035;-47
2023/05/28 04:01:15;;;;;;;43.88;13.75;;;;;;;11.83;100.00;102174.22;5073530;28;20517;-45
2023/05/28 04:03:41;;;;;;;54.20;15.27;;;;;;;11.85;100.00;102179.47;5074547;28;20045;-46
2023/05/28 04:06:06;;;;;;;52.42;14.35;;;;;;;11.80;100.00;102171.00;5085352;28;20103;-47
2023/05/28 04:08:32;;;;;;;52.88;13.52;;;;;;;11.78;100.00;102181.06;5084079;28;20032;-45
2023/05/28 04:10:57;;;;;;;48.05;14.20;;;;;;;11.86;100.00;102176.63;5074294;28;20352;-44
2023/05/28 04:13:23;;;;;;;49.40;14.27;;;;;;;11.85;100.00;102169.50;5074448;28;20032;-46
2023/05/28 04:15:48;;;;;;;43.78;13.85;;;;;;;11.84;100.00;102167.78;5073720;28;20092;-44
2023/05/28 04:18:13;;;;;;;48.90;13.98;;;;;;;11.84;100.00;102169.66;5072646;28;20029;-45
2023/05/28 04:20:39;;;;;;;49.65;14.38;;;;;;;11.87;100.00;102172.06;5085582;28;20035;-44
2023/05/28 04:23:04;;;;;;;43.03;12.95;;;;;;;11.92;100.00;102172.44;5090245;28;20107;-46
2023/05/28 04:25:29;;;;;;;46.70;13.88;;;;;;;11.95;100.00;102172.13;5086722;28;20090;-47
2023/05/28 04:27:56;;;;;;;49.17;14.30;;;;;;;12.02;100.00;102183.97;5073221;28;20409;-46
2023/05/28 04:30:22;;;;;;;51.15;14.00;;;;;;;12.06;100.00;102174.56;5081356;28;20024;-45
2023/05/28 04:32:51;;;;;;;45.60;13.30;;;;;;;12.13;100.00;102179.31;5075314;28;20119;-45
2023/05/28 04:35:17;;;;;;;43.13;13.18;;;;;;;12.12;100.00;102175.78;5084286;28;20028;-43
2023/05/28 04:37:44;;;;;;;48.42;14.15;;;;;;;12.15;100.00;102171.91;5086520;28;20028;-47
2023/05/28 04:40:13;;;;;;;45.88;12.50;;;;;;;12.22;100.00;102172.97;5076490;28;20055;-46
2023/05/28 04:42:42;;;;;;;43.40;13.85;;;;;;;12.25;100.00;102172.66;5090259;28;20115;-47
2023/05/28 04:45:09;;;;;;;32.45;13.23;;;;;;;12.31;100.00;102169.31;5087596;28;20033;-43
2023/05/28 04:47:35;;;;;;;33.63;12.98;;;;;;;12.38;100.00;102174.91;5073502;28;20039;-45
2023/05/28 04:50:04;;;;;;;37.72;13.23;;;;;;;12.51;100.00;102170.75;5077733;28;20029;-43
2023/05/28 04:52:35;;;;;;;50.10;13.52;;;;;;;12.57;100.00;102165.72;5081877;28;20148;-48
2023/05/28 04:55:06;;;;;;;39.35;11.80;;;;;;;12.64;100.00;102164.91;5073050;28;20131;-42
2023/05/28 04:57:32;;;;;;;46.38;13.20;;;;;;;12.71;100.00;102157.81;5081256;28;20123;-45
2023/05/28 04:59:58;;;;;;;39.95;12.85;;;;;;;12.73;100.00;102153.09;5075461;28;20119;-44
2023/05/28 05:02:24;;;;;;;52.05;14.90;;;;;;;12.72;100.00;102151.41;5081446;28;20340;-46
2023/05/28 05:04:49;;;;;;;45.10;12.82;;;;;;;12.82;100.00;102154.00;5084491;28;20032;-43
2023/05/28 05:07:15;;;;;;;43.28;13.52;;;;;;;12.91;100.00;102157.56;5082082;28;20029;-44
2023/05/28 05:09:40;;;;;;;45.67;13.52;;;;;;;13.03;100.00;102166.19;5079618;28;20107;-45
2023/05/28 05:12:07;;;;;;;47.67;12.88;;;;;;;13.15;100.00;102173.81;5073194;28;20759;-46
2023/05/28 05:14:33;;;;;;;37.58;12.38;;;;;;;13.31;100.00;102175.72;5077689;28;20588;-45
2023/05/28 05:16:58;;;;;;;53.58;14.18;;;;;;;13.35;100.00;102170.84;5087888;28;20107;-43
2023/05/28 05:19:25;;;;;;;40.95;12.75;;;;;;;13.49;100.00;102172.03;5090045;28;20036;-48
2023/05/28 05:21:51;;;;;;;41.92;12.68;;;;;;;13.53;100.00;102167.94;5077072;28;20514;-46
2023/05/28 05:24:16;;;;;;;44.78;13.00;;;;;;;13.62;100.00;102161.53;5080959;28;20085;-48
2023/05/28 05:26:41;;;;;;;48.25;12.48;;;;;;;13.66;100.00;102157.47;5089877;28;20036;-43
2023/05/28 05:29:07;;;;;;;42.05;11.95;;;;;;;13.70;100.00;102166.94;5090672;28;20032;-45
2023/05/28 05:31:32;;;;;;;32.30;12.15;;;;;;;13.76;100.00;102170.81;5087815;28;20443;-43
2023/05/28 05:33:57;;;;;;;42.80;13.00;;;;;;;13.86;100.00;102157.13;5077977;28;20021;-46
2023/05/28 05:36:23;;;;;;;39.92;13.60;;;;;;;13.96;100.00;102157.78;5070682;28;20032;-46
2023/05/28 05:38:48;;;;;;;36.90;12.55;;;;;;;14.08;100.00;102166.38;5086633;28;20036;-48
2023/05/28 05:41:13;;;;;;;41.17;12.68;;;;;;;14.21;100.00;102167.53;5087902;28;20032;-46
2023/05/28 05:43:39;;;;;;;37.55;11.82;;;;;;;14.32;100.00;102163.59;5078260;28;20060;-46
2023/05/28 05:46:04;;;;;;;35.53;11.27;;;;;;;14.41;100.00;102167.13;5071707;28;20394;-45
2023/05/28 05:48:30;;;;;;;52.50;11.73;;;;;;;14.50;100.00;102166.06;5075090;28;20058;-46
2023/05/28 05:50:55;;;;;;;36.03;11.15;;;;;;;14.58;100.00;102162.53;5080459;28;20131;-45
2023/05/28 05:53:21;;;;;;;38.75;10.65;;;;;;;14.64;100.00;102159.09;5056728;28;20028;-45
2023/05/28 05:55:47;;;;;;;38.50;11.13;;;;;;;14.71;100.00;102157.38;5068648;28;20093;-48
2023/05/28 05:58:13;;;;;;;34.55;11.32;;;;;;;14.74;100.00;102161.59;5070716;28;20440;-47
2023/05/28 06:00:39;;;;;;;34.88;10.85;;;;;;;14.75;100.00;102163.31;5083341;28;20028;-45
2023/05/28 06:03:04;;;;;;;43.97;11.70;;;;;;;14.76;100.00;102159.56;5088102;28;20184;-43
2023/05/28 06:05:31;;;;;;;37.35;11.25;;;;;;;14.85;100.00;102163.91;5088176;28;20458;-44
2023/05/28 06:07:56;;;;;;;33.72;12.00;;;;;;;15.00;100.00;102145.84;5073207;28;20039;-48
2023/05/28 06:10:22;;;;;;;28.98;10.52;;;;;;;15.17;100.00;102146.59;5086629;28;20036;-48
2023/05/28 06:12:48;;;;;;;39.25;11.75;;;;;;;15.41;100.00;102147.44;5102009;28;20031;-48
2023/05/28 06:15:13;;;;;;;40.75;10.82;;;;;;;15.74;100.00;102148.00;5087090;28;20672;-46
2023/05/28 06:17:39;;;;;;;30.48;10.00;;;;;;;16.10;100.00;102141.88;5087847;28;20110;-45
2023/05/28 06:20:06;;;;;;;35.70;9.18;;;;;;;16.63;100.00;102142.59;5074992;28;20136;-47
2023/05/28 06:22:32;;;;;;;27.80;9.70;;;;;;;17.15;100.00;102136.09;5067086;28;20036;-46
2023/05/28 06:24:57;;;;;;;32.58;10.23;;;;;;;17.55;100.00;102126.41;5070427;28;20506;-46
2023/05/28 06:27:23;;;;;;;34.92;9.20;;;;;;;17.85;100.00;102120.81;5058635;28;20056;-46
2023/05/28 06:29:48;;;;;;;34.00;9.07;;;;;;;18.23;100.00;102122.28;5069153;28;20565;-47
2023/05/28 06:32:13;;;;;;;28.33;8.43;;;;;;;18.45;100.00;102118.41;5085469;28;20036;-48
2023/05/28 06:34:39;;;;;;;29.52;8.13;;;;;;;18.61;100.00;102115.31;5084771;28;20059;-47
2023/05/28 06:37:04;;;;;;;26.30;8.98;;;;;;;18.78;100.00;102120.47;5087141;28;20016;-45
2023/05/28 06:39:30;;;;;;;25.48;8.18;;;;;;;18.82;100.00;102111.63;5079873;28;20039;-48
2023/05/28 06:41:55;;;;;;;25.20;8.23;;;;;;;18.95;100.00;102113.56;5076831;28;20028;-44
2023/05/28 06:44:21;;;;;;;21.90;7.60;;;;;;;18.92;100.00;102116.69;5086188;28;20063;-46
2023/05/28 06:46:48;;;;;;;28.98;7.53;;;;;;;19.25;100.00;102126.84;5087399;28;20051;-45
2023/05/28 06:49:13;;;;;;;26.27;7.15;;;;;;;19.62;100.00;102121.81;5085626;28;20417;-45
2023/05/28 06:51:39;;;;;;;28.10;8.10;;;;;;;19.85;100.00;102119.53;5077104;28;20042;-46
2023/05/28 06:54:04;;;;;;;27.25;8.20;;;;;;;20.06;100.00;102114.81;5072485;28;20028;-50
2023/05/28 06:56:30;;;;;;;26.67;8.70;;;;;;;20.69;100.00;102116.94;5072926;28;20226;-48
2023/05/28 06:58:55;;;;;;;29.23;8.07;;;;;;;21.64;100.00;102109.56;5068257;28;20029;-45
2023/05/28 07:01:20;;;;;;;21.35;7.60;;;;;;;22.54;100.00;102125.47;5067786;28;20094;-47
2023/05/28 07:03:46;;;;;;;25.70;9.35;;;;;;;23.13;99.96;102119.38;5069352;28;20028;-46
2023/05/28 07:06:12;;;;;;;26.88;8.57;;;;;;;23.47;98.17;102126.03;5070626;28;20016;-47
2023/05/28 07:08:40;;;;;;;25.52;7.10;;;;;;;24.39;94.26;102133.66;5071283;28;20036;-45
2023/05/28 07:11:07;;;;;;;23.42;7.75;;;;;;;25.26;84.52;102134.53;5068733;28;20100;-46
2023/05/28 07:13:33;;;;;;;29.00;8.52;;;;;;;25.06;86.63;102134.97;5068483;28;20021;-49
2023/05/28 07:15:58;;;;;;;19.45;7.55;;;;;;;25.51;82.36;102137.69;5072275;28;20122;-46
2023/05/28 07:18:24;;;;;;;23.55;7.72;;;;;;;25.93;78.56;102139.19;5075974;28;20108;-46
2023/05/28 07:20:49;;;;;;;19.27;7.03;;;;;;;26.09;79.40;102141.06;5074256;28;20044;-47
2023/05/28 07:23:15;;;;;;;21.67;7.68;;;;;;;26.44;75.90;102151.78;5068037;28;20031;-47
2023/05/28 07:25:42;;;;;;;21.80;7.15;;;;;;;26.16;76.17;102136.22;5074916;28;20119;-46
2023/05/28 07:28:07;;;;;;;;;;;;;;;26.06;77.02;102141.59;5090513;28;20051;-45
2023/05/28 07:30:33;;;;;;;19.90;6.93;;;;;;;26.20;75.02;102148.44;5079659;28;20017;-47
2023/05/28 07:32:58;;;;;;;20.92;7.35;;;;;;;26.19;75.45;102148.66;5079871;28;20063;-46
2023/05/28 07:35:23;;;;;;;17.95;6.88;;;;;;;26.30;74.58;102144.94;5082770;28;20032;-44
2023/05/28 07:37:49;;;;;;;20.27;7.18;;;;;;;26.29;75.95;102148.81;5079964;28;20072;-50
2023/05/28 07:40:14;;;;;;;20.23;6.95;;;;;;;26.56;73.91;102143.38;5087866;28;20027;-47
2023/05/28 07:42:39;;;;;;;19.75;6.95;;;;;;;26.98;72.13;102151.00;5085820;28;20028;-49
2023/05/28 07:45:05;;;;;;;19.52;6.85;;;;;;;26.98;71.01;102152.94;5074542;28;20071;-47
2023/05/28 07:47:30;;;;;;;18.63;6.93;;;;;;;26.75;71.20;102154.91;5083854;28;20036;-46
2023/05/28 07:49:56;;;;;;;18.92;7.60;;;;;;;26.44;72.13;102162.81;5092108;28;20023;-49
2023/05/28 07:52:21;;;;;;;22.95;7.25;;;;;;;26.61;71.88;102150.88;5080772;28;20110;-48
2023/05/28 07:54:46;;;;;;;20.40;6.90;;;;;;;26.86;70.88;102151.19;5082744;28;20075;-46
2023/05/28 07:57:14;;;;;;;17.65;6.00;;;;;;;27.16;71.93;102152.59;5082161;28;20183;-48
2023/05/28 07:59:40;;;;;;;19.40;6.40;;;;;;;27.92;68.79;102149.66;5072903;28;20500;-47
2023/05/28 08:02:05;;;;;;;16.70;6.57;;;;;;;28.41;65.11;102151.25;5075625;28;20115;-46
2023/05/28 08:04:31;;;;;;;17.13;6.28;;;;;;;28.38;64.06;102151.81;5088385;28;20032;-48
2023/05/28 08:06:56;;;;;;;15.82;6.07;;;;;;;28.15;65.11;102151.16;5088353;28;20103;-46
2023/05/28 08:09:23;;;;;;;19.83;6.40;;;;;;;27.48;65.47;102154.53;5082188;28;20029;-46
2023/05/28 08:11:48;;;;;;;24.20;7.17;;;;;;;26.98;65.90;102152.94;5078406;28;20043;-46
2023/05/28 08:14:14;;;;;;;20.63;6.18;;;;;;;26.15;69.34;102145.59;5081599;28;20016;-45
2023/05/28 08:16:40;;;;;;;21.30;6.20;;;;;;;25.58;71.71;102145.81;5072124;28;20641;-45
2023/05/28 08:19:05;;;;;;;17.67;6.35;;;;;;;24.75;75.59;102149.00;5080216;28;20069;-47
2023/05/28 08:21:31;;;;;;;18.67;6.00;;;;;;;24.24;79.33;102152.56;5076396;28;20042;-44
2023/05/28 08:23:56;;;;;;;15.65;6.45;;;;;;;24.08;81.35;102145.91;5070614;28;20032;-46
2023/05/28 08:26:21;;;;;;;15.95;5.40;;;;;;;24.03;81.14;102143.03;5070403;28;20039;-49
2023/05/28 08:28:47;;;;;;;23.35;6.55;;;;;;;24.01;80.96;102142.44;5071502;28;20093;-46
2023/05/28 08:31:12;;;;;;;18.75;6.30;;;;;;;23.99;82.23;102136.34;5072260;28;20032;-46
2023/05/28 08:33:38;;;;;;;20.70;6.75;;;;;;;24.20;83.05;102141.22;5082168;28;20031;-46
2023/05/28 08:36:03;;;;;;;16.23;5.88;;;;;;;24.48;80.64;102139.63;5088876;28;20035;-45
2023/05/28 08:38:29;;;;;;;16.10;5.53;;;;;;;24.62;80.06;102138.28;5079824;28;20550;-49
2023/05/28 08:40:55;;;;;;;21.65;6.25;;;;;;;25.07;78.29;102139.41;5075064;28;20107;-47
2023/05/28 08:43:21;;;;;;;16.33;5.88;;;;;;;25.29;76.70;102139.53;5077826;28;20020;-48
2023/05/28 08:45:47;;;;;;;20.20;6.47;;;;;;;25.26;78.71;102146.38;5087133;28;20032;-47
2023/05/28 08:48:13;;;;;;;17.05;6.50;;;;;;;25.17;77.09;102137.69;5075399;28;20037;-48
2023/05/28 08:50:40;;;;;;;18.95;6.43;;;;;;;25.21;77.25;102138.03;5070389;28;20070;-47
2023/05/28 08:53:11;;;;;;;15.23;6.13;;;;;;;25.35;76.58;102144.03;5073129;28;20032;-44
2023/05/28 08:55:36;;;;;;;16.80;5.90;;;;;;;25.69;76.91;102138.53;5068289;28;20316;-47
2023/05/28 08:58:02;;;;;;;20.55;6.35;;;;;;;26.06;74.52;102145.19;5081546;28;20545;-46
2023/05/28 09:00:27;;;;;;;19.08;6.65;;;;;;;26.16;74.64;102141.72;5075594;28;20082;-45
2023/05/28 09:02:53;;;;;;;18.30;6.22;;;;;;;26.38;73.03;102147.25;5080472;28;20032;-47
2023/05/28 09:05:19;;;;;;;16.90;7.00;;;;;;;26.53;73.19;102151.34;5084322;28;20048;-46
2023/05/28 09:07:45;;;;;;;21.27;6.95;;;;;;;26.27;73.05;102142.69;5074749;28;20028;-44
2023/05/28 09:10:11;;;;;;;16.52;6.30;;;;;;;26.41;73.78;102137.63;5085485;28;20127;-45
2023/05/28 09:12:39;;;;;;;19.85;6.57;;;;;;;26.70;73.53;102144.66;5080095;28;20036;-44
2023/05/28 09:15:05;;;;;;;19.83;6.57;;;;;;;26.73;72.70;102143.31;5083632;28;20032;-46
2023/05/28 09:17:38;;;;;;;18.70;6.15;;;;;;;26.35;70.33;102136.72;5088444;28;20024;-47
2023/05/28 09:20:14;;;;;;;16.73;6.18;;;;;;;25.37;71.70;102141.88;5081481;28;20469;-44
2023/05/28 09:22:39;;;;;;;19.88;6.28;;;;;;;24.86;72.63;102140.94;5085733;28;20514;-48
2023/05/28 09:25:08;;;;;;;15.68;6.45;;;;;;;24.80;71.52;102136.41;5081223;28;20036;-47
2023/05/28 09:27:35;;;;;;;17.25;5.93;;;;;;;25.44;72.35;102136.22;5077213;28;20336;-46
2023/05/28 09:30:05;;;;;;;17.63;5.57;;;;;;;25.98;67.77;102137.34;5089653;28;20028;-46
2023/05/28 09:32:33;;;;;;;15.05;5.80;;;;;;;25.93;68.19;102151.06;5076790;28;20127;-48
2023/05/28 09:34:59;;;;;;;15.10;5.47;;;;;;;26.58;67.84;102146.72;5063324;28;20031;-46
2023/05/28 09:37:27;;;;;;;18.40;6.03;;;;;;;26.88;65.09;102143.47;5080312;28;20067;-46
2023/05/28 09:40:03;;;;;;;16.20;5.88;;;;;;;27.14;64.99;102140.94;5068909;28;20060;-46
2023/05/28 09:42:38;;;;;;;17.67;5.77;;;;;;;27.24;64.12;102143.00;5073066;28;20398;-45
2023/05/28 09:45:04;;;;;;;17.80;6.20;;;;;;;27.02;63.41;102145.81;5079768;28;20060;-45
2023/05/28 09:47:29;;;;;;;19.02;6.40;;;;;;;26.34;64.21;102146.13;5082857;28;20047;-45
2023/05/28 09:49:54;;;;;;;17.15;5.65;;;;;;;26.22;67.15;102145.38;5088918;28;20020;-46
2023/05/28 09:52:21;;;;;;;22.92;6.22;;;;;;;25.88;65.50;102141.88;5088842;28;20428;-45
2023/05/28 09:54:53;;;;;;;12.80;5.93;;;;;;;25.31;68.23;102135.44;5088985;28;20373;-46
2023/05/28 09:57:30;;;;;;;19.88;6.45;;;;;;;25.08;68.03;102133.63;5089667;28;20040;-44
2023/05/28 09:59:56;;;;;;;14.73;5.60;;;;;;;25.22;67.81;102139.69;5087968;28;20043;-49
2023/05/28 10:02:28;;;;;;;15.05;6.10;;;;;;;25.60;65.88;102136.19;5088740;28;20477;-46
2023/05/28 10:04:56;;;;;;;17.88;6.15;;;;;;;25.87;64.01;102141.03;5089107;28;20039;-46
2023/05/28 10:07:25;;;;;;;14.10;6.18;;;;;;;26.48;63.95;102141.88;5084337;28;20028;-47
2023/05/28 10:09:51;;;;;;;20.52;6.32;;;;;;;26.82;60.76;102140.91;5088838;28;20043;-49
2023/05/28 10:12:22;;;;;;;20.95;6.20;;;;;;;26.82;57.81;102146.44;5090964;28;20452;-46
2023/05/28 10:14:48;;;;;;;13.30;5.40;;;;;;;26.55;59.08;102136.19;5089148;28;20054;-45
2023/05/28 10:17:14;;;;;;;19.65;5.93;;;;;;;26.26;56.99;102143.81;5071175;28;20020;-47
2023/05/28 10:19:40;;;;;;;16.98;6.00;;;;;;;26.03;58.73;102137.41;5087763;28;20024;-45
2023/05/28 10:22:05;;;;;;;14.32;5.43;;;;;;;26.56;60.42;102134.25;5088877;28;20451;-46
2023/05/28 10:24:31;;;;;;;12.98;5.03;;;;;;;27.10;56.61;102151.69;5087557;28;20398;-45
2023/05/28 10:26:57;;;;;;;15.52;6.00;;;;;;;27.64;54.57;102142.50;5070438;28;20389;-48
2023/05/28 10:29:22;;;;;;;17.50;5.72;;;;;;;28.02;53.63;102141.41;5088163;28;20047;-45
2023/05/28 10:32:00;;;;;;;15.70;5.72;;;;;;;28.06;49.33;102141.69;5087412;28;20039;-46
2023/05/28 10:34:33;;;;;;;14.30;6.00;;;;;;;28.21;49.69;102143.72;5086350;28;20035;-46
2023/05/28 10:37:05;;;;;;;13.40;5.65;;;;;;;28.12;50.27;102140.63;5088730;28;20028;-45
2023/05/28 10:39:47;;;;;;;14.18;5.82;;;;;;;27.87;50.34;102146.00;5088248;28;20047;-46
2023/05/28 10:42:17;;;;;;;16.55;6.05;;;;;;;27.84;52.83;102141.03;5088712;28;20028;-48
2023/05/28 10:44:53;;;;;;;21.00;5.50;;;;;;;28.01;53.14;102139.72;5088513;28;20062;-44
2023/05/28 10:47:19;;;;;;;14.07;5.13;;;;;;;28.46;51.92;102145.78;5087360;28;20036;-48
2023/05/28 10:50:10;;;;;;;16.95;5.88;;;;;;;28.37;48.80;102133.53;5088350;28;20031;-47
2023/05/28 10:52:36;;;;;;;14.32;5.85;;;;;;;27.95;50.68;102138.03;5088849;28;20035;-47
2023/05/28 10:55:03;;;;;;;15.20;5.40;;;;;;;27.94;52.05;102141.91;5088568;28;20166;-49
2023/05/28 10:57:41;;;;;;;;;;;;;;;27.86;50.89;102138.78;5089082;28;20031;-44
2023/05/28 11:00:11;;;;;;;17.35;5.68;;;;;;;27.84;50.71;102138.25;5088500;28;20455;-45
2023/05/28 11:02:38;;;;;;;15.73;5.95;;;;;;;27.55;51.07;102135.81;5088871;28;20071;-44